Saint Cloud, MN

1:32 AM CDT on August 29, 2014 (GMT -0500)
Saint Cloud Regional | Change Station
CLOSE
Current Station
Airport
Location: St. Cloud,
Elevation: 1024 ft
Nearby Weather Stations

Elev 1024 ft 45.55 °N, 94.06 °W | Updated 39 minutes ago

Overcast
Overcast
68 °F
Feels Like 68 °F
N
6
Wind Variable Wind from East

Today
High -- | Low -- °F
--% Chance of Precip.
Yesterday
High -- | Low -- °F
Precip. -- in
6:34 AM 7:59 PM
Waxing Crescent, 12% visible
Pressure 29.88 in
Visibility 10.0 miles
Clouds Overcast 1100 ft
Dew Point 64 °F
Humidity 87%
Rainfall 0.00 in
Snow Depth Not available.
UV 0 out of 12
Pollen 7.00 out of 12
Air Quality Not available.
Flu Activity Not available.
METAR KSTC 290553Z AUTO 10005KT 10SM OVC011 20/18 A2987 RMK AO2 SLP118 60000 T02000178 10200 20194 402440150 58015

More Conditions Fewer Conditions

Pressure 29.88 in
Visibility 10.0 miles
Clouds Overcast 1100 ft
Dew Point 64 °F
Humidity 87%
Rainfall 0.00 in
Snow Depth Not available.
UV 0 out of 12
Pollen 7.00 out of 12
Air Quality Not available.
Flu Activity Not available.
METAR KSTC 290553Z AUTO 10005KT 10SM OVC011 20/18 A2987 RMK AO2 SLP118 60000 T02000178 10200 20194 402440150 58015

More Conditions Fewer Conditions

10-Day Weather Forecast

Almanac

Astronomy

Aug. 29, 2014 Rise Set
Actual Time 6:34 AM CDT 7:59 PM CDT
Civil Twilight 6:03 AM CDT 8:30 PM CDT
Nautical Twilight 5:26 AM CDT 9:07 PM CDT
Astronomical Twilight 4:46 AM CDT 9:47 PM CDT
Moon 10:38 AM CDT 9:43 PM CDT
Length of Visible Light 14h 27m
Length of Day
13h 25m
Tomorrow will be 3m 3s shorter.
Waxing Crescent, 12% of the Moon is Illuminated
Today
Waxing Crescent
Sep 2
First Quarter
Sep 8
Full
Sep 15
Last Quarter
Sep 24
New

Today's Extremes

State Highs State Lows

Community

WunderPhotos

Upload Photos

1,748,197 photos uploaded!

Nearby

Snow Depth

Station Depth Elevation
No new snow has been reported.

Earthquake Activity

City Distance Mag. Time & Date
No recent earthquake activity has been reported nearby.
Minimum magnitude displayed is 2.5.

Coastal Water Temperatures

Place Temperature
No Stations Reporting

Nearby Weather Stations